Time;durP1;ratioP1;P1;durP2;ratioP2;P2;SDS_P1;SDS_P2;PMS_P1;PMS_P2;Temp;Humidity;BMP_temperature;BMP_pressure;BME280_temperature;BME280_humidity;BME280_pressure;Samples;Min_cycle;Max_cycle;Signal;HPM_P1;HPM_P2
2022/06/04 00:00:25;;;;;;;4.28;3.97;;;;;;;;;;5064444;28;20201;-69
2022/06/04 00:02:51;;;;;;;4.80;3.53;;;;;;;;;;5063869;28;20204;-69
2022/06/04 00:05:19;;;;;;;3.65;3.45;;;;;;;;;;5063549;28;20225;-69
2022/06/04 00:07:46;;;;;;;3.90;3.50;;;;;;;;;;5063791;28;20204;-69
2022/06/04 00:15:43;;;;;;;3.83;3.63;;;;;;;;;;5063550;28;20376;-69
2022/06/04 00:18:10;;;;;;;4.07;3.78;;;;;;;;;;5063624;28;20197;-69
2022/06/04 00:20:36;;;;;;;4.50;4.07;;;;;;;;;;5063747;28;20198;-69
2022/06/04 00:23:04;;;;;;;6.32;4.07;;;;;;;;;;5063490;28;20393;-69
2022/06/04 00:25:33;;;;;;;4.03;3.70;;;;;;;;;;5063467;28;20227;-69
2022/06/04 00:28:00;;;;;;;5.80;3.72;;;;;;;;;;5062835;28;20196;-69
2022/06/04 00:30:27;;;;;;;4.70;3.78;;;;;;;;;;5063301;28;20204;-69
2022/06/04 00:32:53;;;;;;;3.63;3.42;;;;;;;;;;5063557;28;20197;-69
2022/06/04 00:35:20;;;;;;;3.45;3.25;;;;;;;;;;5063318;28;20200;-69
2022/06/04 00:37:46;;;;;;;4.30;3.53;;;;;;;;;;5062906;28;20205;-69
2022/06/04 00:40:15;;;;;;;4.10;3.80;;;;;;;;;;5063189;28;20451;-69
2022/06/04 00:42:43;;;;;;;4.32;3.63;;;;;;;;;;5063048;28;20205;-69
2022/06/04 00:45:24;;;;;;;3.72;3.53;;;;;;;;;;5063250;28;20516;-69
2022/06/04 00:47:50;;;;;;;3.88;3.50;;;;;;;;;;5063028;28;20205;-69
2022/06/04 00:50:18;;;;;;;6.90;3.33;;;;;;;;;;5063096;28;20307;-69
2022/06/04 00:52:46;;;;;;;4.25;3.40;;;;;;;;;;5062959;28;20200;-69
2022/06/04 00:55:13;;;;;;;4.38;3.40;;;;;;;;;;5062787;28;20197;-69
2022/06/04 00:57:49;;;;;;;4.13;3.78;;;;;;;;;;5062732;28;20200;-69
2022/06/04 01:00:17;;;;;;;4.03;3.72;;;;;;;;;;5063014;28;20226;-69
2022/06/04 01:02:50;;;;;;;4.00;3.63;;;;;;;;;;5062810;28;20231;-69
2022/06/04 01:05:21;;;;;;;3.58;3.38;;;;;;;;;;5062537;28;20540;-69
2022/06/04 01:07:57;;;;;;;3.88;3.55;;;;;;;;;;5062438;28;20208;-69
2022/06/04 01:10:32;;;;;;;3.78;3.58;;;;;;;;;;5062767;28;20197;-69
2022/06/04 01:13:07;;;;;;;4.07;3.80;;;;;;;;;;5062641;28;20200;-69
2022/06/04 01:15:38;;;;;;;4.45;4.07;;;;;;;;;;5062674;28;20196;-69
2022/06/04 01:18:09;;;;;;;3.92;3.63;;;;;;;;;;5062279;28;20197;-69
2022/06/04 01:20:40;;;;;;;3.70;3.33;;;;;;;;;;5062802;28;20201;-69
2022/06/04 01:23:33;;;;;;;4.72;3.90;;;;;;;;;;5062678;28;20212;-69
2022/06/04 01:26:16;;;;;;;4.22;3.83;;;;;;;;;;5037746;28;20223;-69
2022/06/04 01:28:45;;;;;;;3.45;3.17;;;;;;;;;;5062251;28;20205;-69
2022/06/04 01:31:15;;;;;;;3.67;3.47;;;;;;;;;;5062322;28;20230;-69
2022/06/04 01:33:42;;;;;;;3.58;3.30;;;;;;;;;;5062372;28;20244;-69
2022/06/04 01:36:11;;;;;;;3.65;3.35;;;;;;;;;;5062235;28;20201;-69
2022/06/04 01:38:41;;;;;;;4.15;3.75;;;;;;;;;;5061271;28;20427;-69
2022/06/04 01:41:07;;;;;;;3.72;3.30;;;;;;;;;;5062136;28;20189;-69
2022/06/04 01:43:38;;;;;;;3.03;2.85;;;;;;;;;;5061722;28;20189;-69
2022/06/04 01:46:08;;;;;;;5.43;3.20;;;;;;;;;;5061949;28;20212;-69
2022/06/04 01:48:37;;;;;;;3.95;3.70;;;;;;;;;;5062201;28;20512;-69
2022/06/04 01:51:04;;;;;;;3.60;3.30;;;;;;;;;;5061957;28;20220;-69
2022/06/04 01:53:32;;;;;;;4.50;3.20;;;;;;;;;;5062212;28;20197;-69
2022/06/04 01:56:00;;;;;;;4.07;3.60;;;;;;;;;;5062076;28;20193;-69
2022/06/04 01:58:28;;;;;;;4.65;4.07;;;;;;;;;;5062044;28;20197;-69
2022/06/04 02:00:58;;;;;;;3.25;3.15;;;;;;;;;;5062174;28;20209;-69
2022/06/04 02:03:27;;;;;;;3.45;3.15;;;;;;;;;;5061879;28;20431;-69
2022/06/04 02:05:54;;;;;;;3.92;3.53;;;;;;;;;;5062044;28;20308;-69
2022/06/04 02:08:23;;;;;;;3.63;3.25;;;;;;;;;;5061886;28;20251;-69
2022/06/04 02:10:52;;;;;;;3.50;3.25;;;;;;;;;;5061845;28;20201;-69
2022/06/04 02:13:18;;;;;;;4.15;3.63;;;;;;;;;;5061834;28;20340;-69
2022/06/04 02:15:47;;;;;;;4.22;3.28;;;;;;;;;;5061779;28;20254;-69
2022/06/04 02:18:14;;;;;;;3.92;3.53;;;;;;;;;;5061835;28;20207;-69
2022/06/04 02:20:40;;;;;;;3.40;3.25;;;;;;;;;;5061882;28;20197;-69
2022/06/04 02:23:07;;;;;;;3.65;3.35;;;;;;;;;;5062109;28;20201;-69
2022/06/04 02:25:33;;;;;;;5.30;3.33;;;;;;;;;;5061929;28;20201;-69
2022/06/04 02:28:00;;;;;;;4.22;3.40;;;;;;;;;;5061643;28;20193;-69
2022/06/04 02:30:29;;;;;;;3.10;2.90;;;;;;;;;;5061666;28;20197;-69
2022/06/04 02:32:59;;;;;;;3.20;3.00;;;;;;;;;;5061952;28;20242;-69
2022/06/04 02:35:30;;;;;;;3.45;3.13;;;;;;;;;;5061877;28;20205;-69
2022/06/04 02:37:59;;;;;;;3.88;3.42;;;;;;;;;;5061579;28;20197;-69
2022/06/04 02:40:27;;;;;;;4.00;3.70;;;;;;;;;;5061690;28;20198;-69
2022/06/04 02:42:56;;;;;;;3.92;3.60;;;;;;;;;;5062065;28;20413;-69
2022/06/04 02:45:25;;;;;;;3.13;3.03;;;;;;;;;;5061615;28;20198;-69
2022/06/04 02:47:55;;;;;;;3.97;3.67;;;;;;;;;;5061436;28;20552;-69
2022/06/04 02:50:23;;;;;;;3.42;3.22;;;;;;;;;;5063707;28;20197;-69
2022/06/04 02:52:51;;;;;;;4.05;3.60;;;;;;;;;;5065268;28;20208;-69
2022/06/04 02:55:19;;;;;;;3.67;3.20;;;;;;;;;;5065199;28;20197;-69
2022/06/04 02:57:47;;;;;;;6.38;3.90;;;;;;;;;;5065055;28;20553;-69
2022/06/04 03:00:16;;;;;;;3.40;3.20;;;;;;;;;;5065407;28;20197;-69
2022/06/04 03:02:42;;;;;;;5.70;3.15;;;;;;;;;;5065285;28;20304;-69
2022/06/04 03:05:10;;;;;;;3.83;3.53;;;;;;;;;;5064842;28;20225;-69
2022/06/04 03:07:38;;;;;;;4.15;3.85;;;;;;;;;;5064686;28;20556;-69
2022/06/04 03:10:09;;;;;;;4.65;4.18;;;;;;;;;;5064831;28;20243;-69
2022/06/04 03:12:35;;;;;;;4.40;4.00;;;;;;;;;;5065444;28;20219;-69
2022/06/04 03:15:02;;;;;;;5.97;4.28;;;;;;;;;;5064938;28;20247;-69
2022/06/04 03:17:29;;;;;;;4.97;4.68;;;;;;;;;;5064718;28;20193;-69
2022/06/04 03:19:55;;;;;;;5.10;4.65;;;;;;;;;;5064849;28;20205;-69
2022/06/04 03:22:21;;;;;;;5.18;4.72;;;;;;;;;;5064662;28;20197;-69
2022/06/04 03:24:47;;;;;;;4.57;4.25;;;;;;;;;;5064525;28;20205;-69
2022/06/04 03:27:15;;;;;;;5.85;4.30;;;;;;;;;;5064507;28;20221;-69
2022/06/04 03:29:41;;;;;;;5.15;4.30;;;;;;;;;;5064694;28;20259;-69
2022/06/04 03:32:08;;;;;;;5.00;4.50;;;;;;;;;;5064612;28;20202;-69
2022/06/04 03:34:34;;;;;;;6.70;4.75;;;;;;;;;;5064410;28;20198;-69
2022/06/04 03:37:00;;;;;;;4.80;4.47;;;;;;;;;;5064087;28;20193;-69
2022/06/04 03:39:29;;;;;;;4.90;4.28;;;;;;;;;;5064345;28;20220;-69
2022/06/04 03:41:55;;;;;;;6.90;4.13;;;;;;;;;;5064455;28;20505;-69
2022/06/04 03:44:23;;;;;;;11.45;4.50;;;;;;;;;;5064405;28;20444;-69
2022/06/04 03:46:49;;;;;;;6.38;5.22;;;;;;;;;;5064140;28;20236;-69
2022/06/04 03:49:15;;;;;;;5.50;4.68;;;;;;;;;;5064239;28;20422;-69
2022/06/04 03:51:41;;;;;;;6.05;4.90;;;;;;;;;;5064008;28;20232;-69
2022/06/04 03:54:08;;;;;;;5.85;5.35;;;;;;;;;;5064328;28;20259;-69
2022/06/04 03:56:34;;;;;;;5.00;4.60;;;;;;;;;;5063958;28;20193;-69
2022/06/04 03:59:00;;;;;;;4.85;4.55;;;;;;;;;;5063970;28;20204;-69
2022/06/04 04:01:28;;;;;;;5.53;5.03;;;;;;;;;;5062956;28;20197;-69
2022/06/04 04:03:55;;;;;;;4.82;4.40;;;;;;;;;;5063928;28;20205;-69
2022/06/04 04:06:23;;;;;;;5.28;4.97;;;;;;;;;;5063325;28;20263;-69
2022/06/04 04:08:50;;;;;;;5.05;4.80;;;;;;;;;;5064143;28;20426;-69
2022/06/04 04:11:17;;;;;;;5.07;4.70;;;;;;;;;;5063556;28;20197;-69
2022/06/04 04:13:44;;;;;;;4.88;4.30;;;;;;;;;;5063833;28;20201;-69
2022/06/04 04:16:12;;;;;;;6.38;4.68;;;;;;;;;;5063479;28;20200;-69
2022/06/04 04:18:39;;;;;;;5.43;4.88;;;;;;;;;;5063535;28;20201;-69
2022/06/04 04:21:06;;;;;;;5.22;4.65;;;;;;;;;;5063712;28;20220;-69
2022/06/04 04:23:33;;;;;;;6.57;4.90;;;;;;;;;;5064240;28;20394;-69
2022/06/04 04:25:59;;;;;;;4.95;4.63;;;;;;;;;;5063351;28;20197;-69
2022/06/04 04:28:25;;;;;;;5.40;5.00;;;;;;;;;;5063408;28;20217;-69
2022/06/04 04:30:52;;;;;;;5.43;5.03;;;;;;;;;;5063412;28;20515;-69
2022/06/04 04:33:18;;;;;;;4.80;4.38;;;;;;;;;;5063342;28;20500;-69
2022/06/04 04:35:46;;;;;;;5.45;5.05;;;;;;;;;;5063226;28;20220;-69
2022/06/04 04:38:13;;;;;;;5.40;4.38;;;;;;;;;;5063351;28;20528;-69
2022/06/04 04:40:41;;;;;;;6.03;5.50;;;;;;;;;;5063373;28;20197;-69
2022/06/04 04:43:07;;;;;;;4.90;4.55;;;;;;;;;;5063211;28;20396;-69
2022/06/04 04:45:34;;;;;;;7.47;4.88;;;;;;;;;;5063030;28;20235;-69
2022/06/04 04:48:01;;;;;;;5.63;5.20;;;;;;;;;;5062664;28;20220;-69
2022/06/04 04:50:28;;;;;;;4.72;4.47;;;;;;;;;;5063151;28;20563;-69
2022/06/04 04:52:57;;;;;;;5.80;5.10;;;;;;;;;;5062998;28;20201;-69
2022/06/04 04:55:23;;;;;;;5.32;4.93;;;;;;;;;;5063073;28;20223;-69
2022/06/04 04:57:50;;;;;;;5.50;4.97;;;;;;;;;;5062698;28;20197;-69
2022/06/04 05:00:17;;;;;;;5.45;4.97;;;;;;;;;;5062684;28;20227;-69
2022/06/04 05:02:43;;;;;;;5.53;5.03;;;;;;;;;;5062690;28;20259;-69
2022/06/04 05:05:11;;;;;;;6.68;6.07;;;;;;;;;;5062912;28;20271;-69
2022/06/04 05:07:37;;;;;;;8.45;7.55;;;;;;;;;;5062501;28;20220;-69
2022/06/04 05:10:06;;;;;;;8.40;7.60;;;;;;;;;;5062825;28;20370;-69
2022/06/04 05:12:32;;;;;;;5.97;5.57;;;;;;;;;;5062794;28;20197;-69
2022/06/04 05:14:58;;;;;;;5.47;5.07;;;;;;;;;;5062535;28;20219;-69
2022/06/04 05:17:25;;;;;;;7.32;5.55;;;;;;;;;;5062507;28;20240;-69
2022/06/04 05:19:51;;;;;;;6.30;5.80;;;;;;;;;;5062651;28;20197;-69
2022/06/04 05:22:17;;;;;;;5.90;5.40;;;;;;;;;;5063808;28;20208;-69
2022/06/04 05:24:44;;;;;;;5.43;5.00;;;;;;;;;;5063700;28;20205;-69
2022/06/04 05:27:12;;;;;;;6.45;5.18;;;;;;;;;;5062163;28;20404;-69
2022/06/04 05:29:39;;;;;;;5.78;5.38;;;;;;;;;;5062283;28;20201;-69
2022/06/04 05:32:06;;;;;;;5.90;5.05;;;;;;;;;;5062554;28;20219;-69
2022/06/04 05:34:32;;;;;;;5.90;5.43;;;;;;;;;;5062317;28;20213;-69
2022/06/04 05:36:59;;;;;;;7.15;5.18;;;;;;;;;;5062197;28;20423;-69
2022/06/04 05:39:25;;;;;;;6.47;5.82;;;;;;;;;;5062180;28;20323;-69
2022/06/04 05:41:52;;;;;;;7.82;5.47;;;;;;;;;;5062248;28;20374;-69
2022/06/04 05:44:20;;;;;;;5.75;5.30;;;;;;;;;;5062017;28;20197;-69
2022/06/04 05:46:46;;;;;;;6.00;5.10;;;;;;;;;;5061928;28;20197;-69
2022/06/04 05:49:13;;;;;;;5.57;5.13;;;;;;;;;;5062194;28;20224;-69
2022/06/04 05:51:41;;;;;;;5.40;4.95;;;;;;;;;;5062197;28;20198;-69
2022/06/04 05:54:07;;;;;;;5.55;5.07;;;;;;;;;;5062024;28;20197;-69
2022/06/04 05:56:35;;;;;;;5.65;5.25;;;;;;;;;;5061891;28;20201;-69
2022/06/04 05:59:02;;;;;;;6.18;4.78;;;;;;;;;;5061985;28;20384;-69
2022/06/04 06:01:31;;;;;;;5.88;5.30;;;;;;;;;;5062231;28;20269;-69
2022/06/04 06:03:58;;;;;;;10.40;8.00;;;;;;;;;;5061858;28;20204;-69
2022/06/04 06:06:25;;;;;;;6.10;5.55;;;;;;;;;;5061791;28;20255;-69
2022/06/04 06:08:54;;;;;;;11.20;8.63;;;;;;;;;;5062051;28;20258;-69
2022/06/04 06:11:20;;;;;;;6.40;5.97;;;;;;;;;;5061908;28;20512;-69
2022/06/04 06:13:48;;;;;;;6.55;6.03;;;;;;;;;;5062124;28;20201;-69
2022/06/04 06:16:15;;;;;;;6.57;6.00;;;;;;;;;;5061940;28;20255;-69
2022/06/04 06:18:43;;;;;;;5.95;5.50;;;;;;;;;;5061973;28;20197;-69
2022/06/04 06:21:10;;;;;;;5.88;5.38;;;;;;;;;;5061928;28;20197;-69
2022/06/04 06:23:37;;;;;;;6.13;5.53;;;;;;;;;;5061924;28;20216;-69
2022/06/04 06:26:04;;;;;;;6.72;5.35;;;;;;;;;;5064596;28;20235;-69
2022/06/04 06:28:30;;;;;;;5.80;5.32;;;;;;;;;;5066005;28;20416;-69
2022/06/04 06:30:56;;;;;;;5.95;4.80;;;;;;;;;;5065876;28;20242;-69
2022/06/04 06:33:23;;;;;;;7.03;5.72;;;;;;;;;;5065653;28;20272;-69
2022/06/04 06:35:56;;;;;;;6.38;5.78;;;;;;;;;;5065522;28;20197;-69
2022/06/04 06:38:22;;;;;;;7.65;6.38;;;;;;;;;;5065413;28;20497;-69
2022/06/04 06:40:49;;;;;;;9.30;6.70;;;;;;;;;;5065639;28;20519;-69
2022/06/04 06:43:15;;;;;;;7.80;5.55;;;;;;;;;;5065725;28;20373;-69
2022/06/04 06:45:42;;;;;;;9.18;5.57;;;;;;;;;;5065586;28;20243;-69
2022/06/04 06:48:09;;;;;;;9.25;7.00;;;;;;;;;;5065010;28;20220;-69
2022/06/04 06:50:35;;;;;;;7.00;6.30;;;;;;;;;;5065435;28;20550;-69
2022/06/04 06:53:03;;;;;;;9.40;6.50;;;;;;;;;;5065248;28;20200;-69
2022/06/04 06:55:29;;;;;;;9.30;8.00;;;;;;;;;;5065405;28;20209;-69
2022/06/04 06:57:55;;;;;;;11.55;7.05;;;;;;;;;;5065066;28;20197;-69
2022/06/04 07:00:22;;;;;;;6.50;6.00;;;;;;;;;;5065214;28;20200;-69
2022/06/04 07:02:48;;;;;;;10.85;6.72;;;;;;;;;;5065190;28;20197;-69
2022/06/04 07:05:14;;;;;;;11.63;7.07;;;;;;;;;;5064930;28;20232;-69
2022/06/04 07:07:41;;;;;;;7.80;7.00;;;;;;;;;;5064508;28;20282;-69
2022/06/04 07:10:09;;;;;;;7.35;6.72;;;;;;;;;;5065357;28;20197;-69
2022/06/04 07:12:35;;;;;;;7.88;6.63;;;;;;;;;;5064923;28;20497;-69
2022/06/04 07:15:01;;;;;;;6.57;6.05;;;;;;;;;;5064939;28;20200;-69
2022/06/04 07:17:28;;;;;;;9.13;6.65;;;;;;;;;;5064449;28;20215;-69
2022/06/04 07:19:54;;;;;;;7.20;6.68;;;;;;;;;;5064767;28;20221;-69
2022/06/04 07:22:21;;;;;;;6.97;6.25;;;;;;;;;;5064710;28;20250;-69
2022/06/04 07:24:47;;;;;;;6.45;5.93;;;;;;;;;;5064692;28;20197;-69
2022/06/04 07:27:15;;;;;;;7.68;6.55;;;;;;;;;;5064560;28;20235;-69
2022/06/04 07:29:41;;;;;;;8.95;6.65;;;;;;;;;;5064499;28;20426;-69
2022/06/04 07:32:09;;;;;;;10.40;7.35;;;;;;;;;;5064611;28;20243;-69
2022/06/04 07:34:35;;;;;;;8.65;7.07;;;;;;;;;;5060581;28;20229;-68
2022/06/04 07:37:01;;;;;;;7.70;6.90;;;;;;;;;;5060576;28;20209;-68
2022/06/04 07:39:28;;;;;;;7.15;6.45;;;;;;;;;;5063493;28;20227;-69
2022/06/04 07:41:55;;;;;;;6.95;6.32;;;;;;;;;;5045110;28;20421;-69
2022/06/04 07:44:24;;;;;;;8.15;6.65;;;;;;;;;;5044448;28;20522;-69
2022/06/04 07:46:50;;;;;;;7.97;6.25;;;;;;;;;;5044188;28;20205;-69
2022/06/04 07:49:18;;;;;;;7.00;6.18;;;;;;;;;;5044032;28;20230;-69
2022/06/04 07:51:45;;;;;;;9.77;6.43;;;;;;;;;;5044261;28;20201;-69
2022/06/04 07:54:12;;;;;;;7.90;6.80;;;;;;;;;;5044092;28;20193;-69
2022/06/04 07:56:39;;;;;;;6.82;5.88;;;;;;;;;;5044140;28;20236;-69
2022/06/04 07:59:06;;;;;;;6.30;5.70;;;;;;;;;;5044263;28;20198;-69
2022/06/04 08:01:33;;;;;;;5.43;5.03;;;;;;;;;;5044080;28;20202;-69
2022/06/04 08:04:00;;;;;;;5.20;4.70;;;;;;;;;;5043977;28;20474;-69
2022/06/04 08:06:26;;;;;;;5.60;5.10;;;;;;;;;;5043612;28;20222;-69
2022/06/04 08:08:54;;;;;;;8.75;5.68;;;;;;;;;;5043954;28;20221;-69
2022/06/04 08:11:34;;;;;;;7.38;6.72;;;;;;;;;;5043953;28;20268;-69
2022/06/04 08:14:04;;;;;;;7.03;6.32;;;;;;;;;;5043951;28;20198;-69
2022/06/04 08:16:30;;;;;;;8.10;7.30;;;;;;;;;;5043434;28;20244;-69
2022/06/04 08:18:58;;;;;;;9.02;7.25;;;;;;;;;;5043756;28;20194;-69
2022/06/04 08:21:25;;;;;;;7.55;6.63;;;;;;;;;;5043574;28;20204;-69
2022/06/04 08:23:51;;;;;;;10.23;9.27;;;;;;;;;;5043739;28;20501;-69
2022/06/04 08:26:17;;;;;;;9.20;8.25;;;;;;;;;;5043364;28;20567;-69
2022/06/04 08:28:44;;;;;;;7.38;6.70;;;;;;;;;;5043358;28;20222;-69
2022/06/04 08:31:11;;;;;;;7.78;6.93;;;;;;;;;;5043695;28;20197;-69
2022/06/04 08:33:38;;;;;;;9.02;7.25;;;;;;;;;;5043424;28;20197;-69
2022/06/04 08:36:07;;;;;;;8.25;7.38;;;;;;;;;;5043356;28;20244;-69
2022/06/04 08:38:33;;;;;;;9.02;7.40;;;;;;;;;;5043319;28;20198;-69
2022/06/04 08:41:01;;;;;;;10.13;7.72;;;;;;;;;;5043237;28;20251;-69
2022/06/04 08:43:45;;;;;;;7.97;7.30;;;;;;;;;;5043053;28;20198;-69
2022/06/04 08:46:13;;;;;;;9.73;7.35;;;;;;;;;;5043411;28;20462;-69
2022/06/04 08:48:40;;;;;;;8.48;7.38;;;;;;;;;;5042500;28;20213;-69
2022/06/04 08:51:18;;;;;;;9.40;7.47;;;;;;;;;;5043186;28;20401;-69
2022/06/04 08:53:45;;;;;;;9.00;7.45;;;;;;;;;;5043032;28;20197;-69
2022/06/04 08:59:02;;;;;;;10.38;8.65;;;;;;;;;;5042873;28;20543;-69
2022/06/04 09:01:31;;;;;;;8.43;6.75;;;;;;;;;;5042968;28;20259;-69
2022/06/04 09:04:02;;;;;;;7.03;6.43;;;;;;;;;;5042948;28;20217;-69
2022/06/04 09:06:32;;;;;;;7.38;6.80;;;;;;;;;;5042052;28;20229;-69
2022/06/04 09:09:01;;;;;;;8.80;6.70;;;;;;;;;;5042626;28;20279;-69
2022/06/04 09:11:29;;;;;;;6.60;5.95;;;;;;;;;;5042277;28;20417;-69
2022/06/04 09:14:02;;;;;;;6.30;5.72;;;;;;;;;;5042527;28;20205;-69
2022/06/04 09:16:30;;;;;;;6.57;5.97;;;;;;;;;;5042140;28;20221;-69
2022/06/04 09:18:58;;;;;;;6.80;6.10;;;;;;;;;;5042274;28;20240;-69
2022/06/04 09:21:27;;;;;;;7.75;6.47;;;;;;;;;;5042161;28;20236;-69
2022/06/04 09:23:55;;;;;;;6.90;6.38;;;;;;;;;;5042516;28;20197;-69
2022/06/04 09:26:26;;;;;;;6.82;6.20;;;;;;;;;;5042088;28;20225;-69
2022/06/04 09:28:58;;;;;;;10.07;6.22;;;;;;;;;;5042090;28;20451;-69
2022/06/04 09:31:31;;;;;;;6.03;5.50;;;;;;;;;;5042114;28;20236;-69
2022/06/04 09:34:01;;;;;;;7.20;5.63;;;;;;;;;;5042429;28;20197;-69
2022/06/04 09:36:29;;;;;;;9.10;6.18;;;;;;;;;;5041868;28;20197;-69
2022/06/04 09:38:59;;;;;;;6.88;6.18;;;;;;;;;;5041989;28;20244;-69
2022/06/04 09:41:27;;;;;;;6.18;5.63;;;;;;;;;;5041860;28;20201;-69
2022/06/04 09:44:00;;;;;;;5.55;5.15;;;;;;;;;;5041588;28;20198;-69
2022/06/04 09:46:27;;;;;;;6.25;4.80;;;;;;;;;;5041669;28;20203;-69
2022/06/04 09:48:54;;;;;;;5.53;5.10;;;;;;;;;;5041896;28;20217;-69
2022/06/04 09:51:21;;;;;;;6.30;5.68;;;;;;;;;;5041986;28;20197;-69
2022/06/04 09:53:49;;;;;;;6.80;5.68;;;;;;;;;;5042033;28;20197;-69
2022/06/04 09:56:25;;;;;;;6.13;5.47;;;;;;;;;;5041428;28;20189;-69
2022/06/04 09:58:52;;;;;;;6.00;5.10;;;;;;;;;;5041990;28;20193;-69
2022/06/04 10:01:23;;;;;;;5.30;4.88;;;;;;;;;;5045837;28;20478;-69
2022/06/04 10:03:58;;;;;;;5.25;4.95;;;;;;;;;;5046381;28;20553;-69
2022/06/04 10:06:25;;;;;;;7.25;5.00;;;;;;;;;;5045627;28;20597;-68
2022/06/04 10:11:48;;;;;;;5.75;4.65;;;;;;;;;;5045876;28;20196;-69
2022/06/04 10:14:14;;;;;;;6.70;4.72;;;;;;;;;;5045828;28;20197;-69
2022/06/04 10:16:44;;;;;;;6.43;5.55;;;;;;;;;;5045523;28;20239;-69
2022/06/04 10:19:15;;;;;;;4.85;4.45;;;;;;;;;;5045511;28;20501;-68
2022/06/04 10:21:43;;;;;;;5.25;4.85;;;;;;;;;;5045721;28;20420;-68
2022/06/04 10:24:19;;;;;;;4.63;4.32;;;;;;;;;;5045548;28;20285;-68
2022/06/04 10:26:57;;;;;;;5.30;4.80;;;;;;;;;;5045194;28;20197;-69
2022/06/04 10:29:50;;;;;;;4.80;4.50;;;;;;;;;;5045229;28;20210;-68
2022/06/04 10:32:21;;;;;;;5.85;4.63;;;;;;;;;;5045463;28;20198;-68
2022/06/04 10:34:52;;;;;;;5.63;5.32;;;;;;;;;;5045183;28;20201;-68
2022/06/04 10:37:25;;;;;;;5.88;5.20;;;;;;;;;;5044933;28;20205;-69
2022/06/04 10:39:54;;;;;;;5.72;5.22;;;;;;;;;;5047321;28;20248;-69
2022/06/04 10:42:29;;;;;;;6.00;5.47;;;;;;;;;;5054016;28;20201;-68
2022/06/04 10:45:05;;;;;;;10.80;7.15;;;;;;;;;;5051700;28;20524;-67
2022/06/04 10:47:34;;;;;;;14.35;8.90;;;;;;;;;;5056424;28;20212;-68
2022/06/04 10:50:15;;;;;;;11.57;10.38;;;;;;;;;;5055481;28;20228;-67
2022/06/04 10:52:42;;;;;;;15.07;13.40;;;;;;;;;;5058758;28;20208;-68
2022/06/04 10:55:12;;;;;;;17.25;15.35;;;;;;;;;;5059325;28;20209;-68
2022/06/04 10:57:46;;;;;;;26.35;19.83;;;;;;;;;;5058542;28;20215;-68
2022/06/04 11:00:13;;;;;;;23.00;18.77;;;;;;;;;;5049968;28;20202;-68
2022/06/04 11:02:43;;;;;;;22.17;19.73;;;;;;;;;;5055762;28;20213;-68
2022/06/04 11:05:13;;;;;;;22.83;19.88;;;;;;;;;;5038790;28;20234;-68
2022/06/04 11:07:48;;;;;;;19.42;17.50;;;;;;;;;;5038292;28;20232;-68
2022/06/04 11:10:16;;;;;;;22.70;20.17;;;;;;;;;;5045632;28;20628;-69
2022/06/04 11:12:46;;;;;;;21.67;19.38;;;;;;;;;;5058996;28;20205;-67
2022/06/04 11:15:14;;;;;;;21.25;19.13;;;;;;;;;;5064347;28;20235;-67
2022/06/04 11:17:45;;;;;;;21.27;19.17;;;;;;;;;;5064330;28;20201;-68
2022/06/04 11:20:13;;;;;;;21.15;18.73;;;;;;;;;;5064881;28;20527;-70
2022/06/04 11:22:40;;;;;;;23.70;21.40;;;;;;;;;;5064668;28;20197;-69
2022/06/04 11:25:15;;;;;;;23.17;20.88;;;;;;;;;;5064588;28;20220;-69
2022/06/04 11:27:45;;;;;;;21.58;19.50;;;;;;;;;;5063708;28;20218;-67
2022/06/04 11:30:15;;;;;;;24.90;22.33;;;;;;;;;;5063891;28;20220;-69
2022/06/04 11:32:46;;;;;;;23.17;20.92;;;;;;;;;;5064401;28;20461;-69
2022/06/04 11:35:24;;;;;;;22.17;19.90;;;;;;;;;;5064824;28;20427;-70
2022/06/04 11:38:13;;;;;;;21.25;19.25;;;;;;;;;;5064454;28;20196;-69
2022/06/04 11:40:43;;;;;;;23.90;20.08;;;;;;;;;;5064881;28;20515;-69
2022/06/04 11:43:14;;;;;;;24.25;21.92;;;;;;;;;;5064765;28;20441;-69
2022/06/04 11:45:45;;;;;;;24.92;22.33;;;;;;;;;;5064720;28;20196;-69
2022/06/04 11:48:21;;;;;;;25.15;22.67;;;;;;;;;;5064555;28;20235;-70
2022/06/04 11:50:50;;;;;;;23.55;21.20;;;;;;;;;;5064264;28;20225;-69
2022/06/04 11:53:22;;;;;;;25.95;23.35;;;;;;;;;;5064168;28;20268;-69
2022/06/04 11:55:52;;;;;;;25.92;23.20;;;;;;;;;;5064367;28;20205;-70
2022/06/04 11:58:30;;;;;;;24.50;21.95;;;;;;;;;;5064034;28;20243;-69
2022/06/04 12:00:59;;;;;;;23.40;21.17;;;;;;;;;;5064368;28;20197;-69
2022/06/04 12:03:28;;;;;;;23.48;21.38;;;;;;;;;;5063697;28;20197;-69
2022/06/04 12:05:57;;;;;;;23.48;20.35;;;;;;;;;;5063721;28;20419;-69
2022/06/04 12:08:25;;;;;;;21.88;19.92;;;;;;;;;;5063900;28;20201;-69
2022/06/04 12:10:59;;;;;;;22.08;19.83;;;;;;;;;;5063572;28;20262;-69
2022/06/04 12:13:28;;;;;;;21.30;19.30;;;;;;;;;;5063911;28;20242;-69
2022/06/04 12:15:58;;;;;;;21.60;19.42;;;;;;;;;;5063267;28;20427;-69
2022/06/04 12:18:28;;;;;;;22.58;20.45;;;;;;;;;;5063566;28;20201;-69
2022/06/04 12:26:26;;;;;;;22.75;20.52;;;;;;;;;;5062949;28;20189;-69
2022/06/04 12:28:53;;;;;;;20.25;18.33;;;;;;;;;;5063224;28;20215;-69
2022/06/04 12:31:34;;;;;;;21.20;19.17;;;;;;;;;;5063288;28;20528;-69
2022/06/04 12:34:02;;;;;;;19.17;17.48;;;;;;;;;;5063084;28;20242;-69
2022/06/04 12:36:29;;;;;;;18.58;16.80;;;;;;;;;;5063199;28;20512;-69
2022/06/04 12:39:00;;;;;;;21.88;19.58;;;;;;;;;;5063042;28;20197;-69
2022/06/04 12:41:37;;;;;;;18.75;17.05;;;;;;;;;;5063391;28;20239;-69
2022/06/04 12:44:04;;;;;;;17.33;15.70;;;;;;;;;;5063108;28;20208;-69
2022/06/04 12:46:33;;;;;;;18.20;16.58;;;;;;;;;;5062746;28;20523;-69
2022/06/04 12:49:05;;;;;;;16.77;15.15;;;;;;;;;;5062766;28;20268;-69
2022/06/04 12:51:46;;;;;;;17.00;14.55;;;;;;;;;;5062897;28;20250;-69
2022/06/04 12:54:19;;;;;;;15.68;14.20;;;;;;;;;;5062964;28;20203;-70
2022/06/04 12:56:51;;;;;;;13.60;12.52;;;;;;;;;;5062525;28;20200;-69
2022/06/04 12:59:25;;;;;;;15.05;13.10;;;;;;;;;;5062858;28;20197;-69
2022/06/04 13:01:51;;;;;;;13.90;12.63;;;;;;;;;;5062935;28;20185;-69
2022/06/04 13:04:25;;;;;;;13.43;12.05;;;;;;;;;;5062783;28;20212;-69
2022/06/04 13:06:53;;;;;;;13.05;11.85;;;;;;;;;;5062260;28;20220;-69
2022/06/04 13:09:25;;;;;;;12.32;11.35;;;;;;;;;;5062832;28;20217;-69
2022/06/04 13:12:03;;;;;;;12.25;11.05;;;;;;;;;;5062906;28;20216;-69
2022/06/04 13:14:35;;;;;;;10.02;9.27;;;;;;;;;;5062766;28;20241;-69
2022/06/04 13:17:15;;;;;;;11.80;10.80;;;;;;;;;;5062576;28;20267;-69
2022/06/04 13:19:55;;;;;;;11.07;10.27;;;;;;;;;;5062560;28;20254;-69
2022/06/04 13:22:24;;;;;;;10.00;9.30;;;;;;;;;;5062348;28;20200;-69
2022/06/04 13:24:50;;;;;;;8.93;7.93;;;;;;;;;;5062264;28;20211;-70
2022/06/04 13:27:19;;;;;;;8.30;7.70;;;;;;;;;;5062265;28;20330;-70
2022/06/04 13:29:54;;;;;;;8.05;7.30;;;;;;;;;;5062014;28;20277;-69
2022/06/04 13:32:22;;;;;;;8.02;7.30;;;;;;;;;;5062528;28;20196;-69
2022/06/04 13:34:50;;;;;;;8.23;7.50;;;;;;;;;;5062284;28;20227;-69
2022/06/04 13:37:18;;;;;;;6.72;6.25;;;;;;;;;;5062259;28;20476;-69
2022/06/04 13:39:46;;;;;;;6.90;6.40;;;;;;;;;;5062244;28;20193;-69
2022/06/04 13:42:14;;;;;;;7.18;6.60;;;;;;;;;;5061941;28;20204;-70
2022/06/04 13:44:42;;;;;;;6.85;6.20;;;;;;;;;;5062212;28;20196;-69
2022/06/04 13:47:11;;;;;;;7.72;7.13;;;;;;;;;;5061928;28;20221;-69
2022/06/04 13:49:38;;;;;;;6.93;6.53;;;;;;;;;;5061817;28;20251;-69
2022/06/04 13:52:11;;;;;;;6.97;6.47;;;;;;;;;;5062282;28;20565;-69
2022/06/04 13:54:38;;;;;;;9.55;7.22;;;;;;;;;;5062297;28;20192;-69
2022/06/04 13:57:13;;;;;;;7.20;6.50;;;;;;;;;;5061916;28;20220;-69
2022/06/04 13:59:43;;;;;;;6.22;5.72;;;;;;;;;;5062192;28;20391;-70
2022/06/04 14:02:12;;;;;;;5.95;5.45;;;;;;;;;;5062028;28;20230;-70
2022/06/04 14:07:31;;;;;;;5.80;5.40;;;;;;;;;;5061607;28;20235;-70
2022/06/04 14:09:58;;;;;;;5.70;5.20;;;;;;;;;;5061776;28;20213;-69
2022/06/04 14:12:28;;;;;;;5.50;5.00;;;;;;;;;;5062061;28;20221;-70
2022/06/04 14:15:02;;;;;;;9.38;5.43;;;;;;;;;;5061463;28;20228;-70
2022/06/04 14:17:52;;;;;;;5.68;5.18;;;;;;;;;;5061315;28;20200;-69
2022/06/04 14:20:23;;;;;;;5.80;5.30;;;;;;;;;;5061835;28;20238;-70
2022/06/04 14:22:59;;;;;;;5.50;5.00;;;;;;;;;;5061663;28;20196;-69
2022/06/04 14:25:30;;;;;;;5.85;5.20;;;;;;;;;;5062054;28;20204;-69
2022/06/04 14:28:03;;;;;;;4.57;4.20;;;;;;;;;;5061304;28;20223;-70
2022/06/04 14:30:33;;;;;;;5.07;4.60;;;;;;;;;;5061661;28;20465;-69
2022/06/04 14:33:00;;;;;;;6.07;4.32;;;;;;;;;;5061524;28;20225;-70
2022/06/04 14:35:28;;;;;;;4.10;3.15;;;;;;;;;;5061406;28;20255;-70
2022/06/04 14:38:00;;;;;;;3.15;3.00;;;;;;;;;;5061182;28;20197;-70
2022/06/04 14:40:31;;;;;;;2.67;2.58;;;;;;;;;;5061469;28;20193;-70
2022/06/04 14:43:18;;;;;;;5.47;3.05;;;;;;;;;;5061755;28;20516;-70
2022/06/04 14:45:54;;;;;;;3.22;3.03;;;;;;;;;;5062425;28;20196;-70
2022/06/04 14:48:35;;;;;;;2.90;2.70;;;;;;;;;;5065472;28;20196;-70
2022/06/04 14:51:09;;;;;;;3.03;2.40;;;;;;;;;;5063542;28;20258;-70
2022/06/04 14:53:37;;;;;;;2.40;2.22;;;;;;;;;;5065384;28;20223;-70
2022/06/04 14:56:12;;;;;;;2.33;2.22;;;;;;;;;;5064657;28;20235;-70
2022/06/04 14:58:53;;;;;;;2.53;1.95;;;;;;;;;;5064804;28;20429;-69
2022/06/04 15:01:43;;;;;;;2.60;2.40;;;;;;;;;;5063159;28;20193;-70
2022/06/04 15:04:22;;;;;;;2.40;2.20;;;;;;;;;;5054218;28;20204;-70
2022/06/04 15:06:55;;;;;;;2.83;2.13;;;;;;;;;;5064317;28;20413;-70
2022/06/04 15:09:31;;;;;;;2.42;2.33;;;;;;;;;;5064854;28;20197;-70